EGCC/MAN METAR and TAF weather

Enter ICAO airport designator
Station Type Date Time Source
EGCC METAR 2020/08/07 11:50 UTC NOAA

EGCC 071150Z AUTO 23006KT 9999 BKN027/// //////CB 23/18 Q1018


Station Type Date Time Source
EGCC Decoded METAR 2020/08/07 11:50 UTC NOAA

Manchester Airport, United Kingdom (EGCC) 53-21N 002-17W 0M
Aug 07, 2020 - 07:50 AM EDT / 2020.08.07 1150 UTC
Wind: from the SW (230 degrees) at 7 MPH (6 KT):0
Visibility: greater than 7 mile(s):0
Sky conditions: mostly cloudy
Weather: Cumulonimbus clouds observed
Temperature: 73 F (23 C)
Dew Point: 64 F (18 C)
Relative Humidity: 73%
Pressure (altimeter): 30.06 in. Hg (1018 hPa)
ob: EGCC 071150Z AUTO 23006KT 9999 BKN027/// //////CB 23/18 Q1018
cycle: 12

Station Type Date Time Source
EGCC TAF 2020/08/07 12:09 UTC NOAA

TAF EGCC 071057Z 0712/0818 22010KT 9999 SCT035
BECMG 0722/0801 VRB03KT
TEMPO 0802/0808 BKN012 PROB30
TEMPO 0803/0807 4000 BR BKN003

Example: see airport list